CWYO2: Chewey Road

                                SHEF ID:       CWYO2     Illinois River at Chewey, OK
STATION TYPE:
Regulating: Stage = 12.00, Flow = 13730

PRECIP STAGE STAGE(2) RIV-FLOW BAT-LOAD
in ft ft cfs volt
Ccp-Rev Ccp-Rev Ccp-Rev Ccp-Rev Ccp-Rev
(America/Chicago)
05/03 00:00 0.00 4.29 4.27 1237 12.46
05/03 01:00 0.00 4.28 4.26 1229 12.45
05/03 02:00 0.00 4.27 4.25 1221 12.43
05/03 03:00 0.00 4.26 4.24 1214 12.42
05/03 04:00 0.00 4.25 4.23 1206 12.38
05/03 05:00 0.00 4.24 4.21 1198 12.39
05/03 06:00 0.00 4.23 4.21 1191 12.37
05/03 07:00 0.00 4.21 4.20 1175 12.37
05/03 08:00 0.00 4.20 4.18 1168 12.40
05/03 09:00 0.00 4.19 4.17 1160 12.47
05/03 10:00 0.00 4.16 4.17 1137 12.63
05/03 11:00 0.00 4.11 4.16 1099 12.81
05/03 12:00 0.00 4.11 4.15 1099 12.77
05/03 13:00 0.00 4.11 4.14 1099 12.76
05/03 14:00 0.00 4.10 4.13 1092 12.63
05/03 15:00 0.00 4.14 4.13 1122 12.72
05/03 16:00 0.00 4.06 4.12 1062 12.63
05/03 17:00 0.00 4.12 4.11 1107 12.61
05/03 18:00 0.00 4.12 4.10 1107 12.58
05/03 19:00 0.00 4.11 4.09 1099 12.56
05/03 20:00 0.00 4.10 4.08 1092 12.53
05/03 21:00 0.00 4.09 4.08 1084 12.50
05/03 22:00 0.00 4.09 4.06 1084 12.49
05/03 23:00 0.00 4.07 4.05 1070 12.48
Data processed at Mon 04May2026 04:29 GMT

NOTICE: If you are parsing this page

Please convert to using our Data API. Starting early 2026 we will be migrating to: https://water.usace.army.mil with modern pages rendered in JavaScript. When this migration completes you will no longer be able to scrape this page! CWMSDataAPI (CDA)

Timeseries IDs (TSIDs)

TSIDs used from left to right in the data table
CHEW.Precip-Inc.Total.1Hour.1Hour.Ccp-Rev
CHEW.Stage.Inst.1Hour.0.Ccp-Rev
CHEW.Stage-Alt.Inst.1Hour.0.Ccp-Rev
CHEW.Flow.Inst.1Hour.0.Ccp-Rev
CHEW.Volt-Battery Load.Inst.1Hour.0.Ccp-Rev

                            

All information presented herein is the property of the government of the United States of America and may be revised or deleted at any time without prior notice. Dissemination of this information without the expressed written consent of the Public Affairs Office, Tulsa District U.S. Army Corps of Engineers is strictly prohibited. These data are gathered electronically and, as presented, have NOT undergone any form of quality control. These data are NOT guaranteed to be valid or correct.